Time;durP1;ratioP1;P1;durP2;ratioP2;P2;SDS_P1;SDS_P2;PMS_P1;PMS_P2;Temp;Humidity;BMP_temperature;BMP_pressure;BME280_temperature;BME280_humidity;BME280_pressure;Samples;Min_cycle;Max_cycle;Signal;HPM_P1;HPM_P2
2023/02/01 00:01:57;;;;;;;;;13.50;13.50;;;;;8.57;81.30;101837.44;4977110;28;45364;-72
2023/02/01 00:04:23;;;;;;;;;16.25;16.25;;;;;8.57;81.68;101834.81;4973601;28;45442;-73
2023/02/01 00:06:48;;;;;;;;;15.00;15.00;;;;;8.56;81.59;101833.06;4975581;28;45299;-73
2023/02/01 00:09:14;;;;;;;;;11.50;11.50;;;;;8.52;81.20;101839.25;4974176;28;45420;-73
2023/02/01 00:11:40;;;;;;;;;12.25;12.25;;;;;8.51;81.49;101842.75;4975863;28;45429;-72
2023/02/01 00:14:07;;;;;;;;;14.75;12.50;;;;;8.49;81.25;101847.16;4977319;28;45595;-72
2023/02/01 00:16:33;;;;;;;;;13.75;13.75;;;;;8.47;81.00;101834.00;4980172;28;45181;-74
2023/02/01 00:19:04;;;;;;;;;16.50;16.50;;;;;8.46;81.57;101836.63;4977451;28;45286;-72
2023/02/01 00:21:31;;;;;;;;;18.00;18.00;;;;;8.42;81.76;101824.44;4974452;28;45507;-73
2023/02/01 00:23:58;;;;;;;;;11.75;11.00;;;;;8.41;81.50;101825.31;4973747;28;45645;-73
2023/02/01 00:26:27;;;;;;;;;17.00;17.00;;;;;8.40;82.05;101819.22;4955793;28;46070;-73
2023/02/01 00:28:53;;;;;;;;;15.00;15.00;;;;;8.41;81.96;101822.69;4954816;28;45355;-73
2023/02/01 00:31:18;;;;;;;;;12.50;12.50;;;;;8.36;81.80;101804.41;4953495;28;45438;-72
2023/02/01 00:33:47;;;;;;;;;18.25;16.50;;;;;8.38;81.89;101809.63;4953085;28;45653;-72
2023/02/01 00:36:12;;;;;;;;;10.00;10.00;;;;;8.38;81.90;101812.25;4952035;28;45385;-72
2023/02/01 00:38:38;;;;;;;;;14.25;14.25;;;;;8.29;81.06;101795.72;4951849;28;45497;-73
2023/02/01 00:41:24;;;;;;;;;17.00;17.00;;;;;8.31;81.47;101800.97;4952419;28;45309;-72
2023/02/01 00:43:50;;;;;;;;;20.50;20.50;;;;;8.21;81.73;101797.56;4951129;28;45380;-73
2023/02/01 00:46:17;;;;;;;;;23.25;23.25;;;;;8.25;81.85;101814.16;4951760;28;46452;-74
2023/02/01 00:48:43;;;;;;;;;16.25;16.25;;;;;8.15;81.31;101802.88;4953705;28;45468;-73
2023/02/01 00:51:12;;;;;;;;;15.75;15.75;;;;;8.13;81.05;101815.13;4952593;28;45328;-72
2023/02/01 00:53:37;;;;;;;;;10.50;10.50;;;;;8.10;81.14;101817.78;4953978;28;45311;-72
2023/02/01 00:56:04;;;;;;;;;12.00;12.00;;;;;8.09;81.54;101816.03;4952216;28;46000;-72
2023/02/01 00:58:30;;;;;;;;;10.25;10.25;;;;;8.07;81.13;101820.44;4954213;28;45567;-73
2023/02/01 01:01:16;;;;;;;;;7.50;7.50;;;;;8.05;81.39;101830.94;4953121;28;45482;-72
2023/02/01 01:03:45;;;;;;;;;10.50;10.50;;;;;8.04;80.88;101826.59;4953219;28;45574;-72
2023/02/01 01:06:30;;;;;;;;;6.00;6.00;;;;;8.00;81.12;101820.50;4954520;28;46027;-75
2023/02/01 01:08:57;;;;;;;;;9.00;9.00;;;;;8.06;80.43;101831.81;5055178;28;46078;-73
2023/02/01 01:11:27;;;;;;;;;8.50;8.50;;;;;8.04;80.48;101827.44;4955521;28;45465;-74
2023/02/01 01:13:56;;;;;;;;;12.25;12.25;;;;;8.01;80.43;101824.84;4953297;28;45479;-73
2023/02/01 01:16:23;;;;;;;;;10.75;10.75;;;;;8.12;79.98;101831.75;4953542;28;46328;-72
2023/02/01 01:18:48;;;;;;;;;7.75;7.75;;;;;8.11;80.30;101825.66;4952557;28;46736;-73
2023/02/01 01:21:15;;;;;;;;;8.50;8.50;;;;;8.12;80.29;101827.38;4953918;28;45406;-73
2023/02/01 01:23:41;;;;;;;;;9.75;9.75;;;;;8.13;80.20;101833.47;4954076;28;45448;-73
2023/02/01 01:26:08;;;;;;;;;9.25;9.25;;;;;8.12;79.70;101836.97;4953771;28;46299;-74
2023/02/01 01:28:33;;;;;;;;;10.00;9.50;;;;;8.07;79.98;101830.91;4954586;28;45432;-72
2023/02/01 01:30:59;;;;;;;;;5.75;5.75;;;;;8.06;79.81;101837.03;4953104;28;45324;-73
2023/02/01 01:33:24;;;;;;;;;7.75;7.75;;;;;7.90;79.27;101818.84;4954426;28;45288;-74
2023/02/01 01:35:49;;;;;;;;;7.25;7.25;;;;;7.95;79.31;101827.53;4953347;28;45578;-72
2023/02/01 01:38:15;;;;;;;;;10.00;10.00;;;;;7.99;79.86;101842.34;4953209;28;45357;-73
2023/02/01 01:40:45;;;;;;;;;6.00;6.00;;;;;8.00;79.28;101838.84;4953810;28;45217;-72
2023/02/01 01:43:16;;;;;;;;;10.00;9.25;;;;;8.01;79.95;101832.72;4953960;28;45400;-73
2023/02/01 01:45:42;;;;;;;;;6.50;6.50;;;;;7.96;79.75;101829.25;4953913;28;46631;-74
2023/02/01 01:48:16;;;;;;;;;8.00;8.00;;;;;8.02;78.79;101847.56;4955825;28;45241;-73
2023/02/01 01:50:48;;;;;;;;;7.00;7.00;;;;;8.03;79.33;101843.19;4958168;28;45259;-72
2023/02/01 01:53:19;;;;;;;;;8.75;8.75;;;;;8.02;78.87;101846.69;4957820;28;45433;-73
2023/02/01 01:55:47;;;;;;;;;8.75;8.50;;;;;8.03;78.69;101838.81;4957279;28;46186;-73
2023/02/01 01:58:20;;;;;;;;;9.00;8.00;;;;;8.03;77.77;101843.19;4957048;28;45319;-73
2023/02/01 02:00:47;;;;;;;;;8.50;8.50;;;;;8.05;77.31;101838.81;4956965;28;45448;-73
2023/02/01 02:03:15;;;;;;;;;6.50;6.50;;;;;8.06;77.28;101850.16;4957195;28;45573;-74
2023/02/01 02:05:41;;;;;;;;;9.50;9.50;;;;;8.05;77.52;101857.16;4956995;28;45350;-73
2023/02/01 02:08:07;;;;;;;;;7.50;7.50;;;;;8.04;77.70;101851.03;5057845;27;45336;-73
2023/02/01 02:13:17;;;;;;;;;5.50;5.50;;;;;8.07;76.63;101846.63;4957332;28;45929;-73
2023/02/01 02:16:16;;;;;;;;;10.25;8.25;;;;;8.04;76.38;101827.44;4956712;28;46517;-74
2023/02/01 02:18:58;;;;;;;;;9.75;9.75;;;;;8.08;75.52;101844.03;4956574;28;45970;-73
2023/02/01 02:21:33;;;;;;;;;6.00;6.00;;;;;8.10;74.58;101836.13;4956839;28;45400;-73
2023/02/01 02:24:13;;;;;;;;;8.50;8.25;;;;;8.10;73.57;101828.25;4956719;28;45264;-73
2023/02/01 02:26:44;;;;;;;;;8.00;8.00;;;;;8.12;73.30;101839.59;4956574;28;46783;-73
2023/02/01 02:29:34;;;;;;;;;6.00;6.00;;;;;8.12;72.78;101831.75;4956296;28;45195;-73
2023/02/01 02:32:22;;;;;;;;;8.00;6.75;;;;;8.13;72.19;101843.97;4956665;28;45362;-73
2023/02/01 02:35:06;;;;;;;;;7.50;7.50;;;;;8.14;71.88;101843.06;4956963;28;45226;-73
2023/02/01 02:37:52;;;;;;;;;5.75;5.75;;;;;8.13;71.61;101829.13;4956856;28;47436;-73
2023/02/01 02:40:30;;;;;;;;;3.75;3.75;;;;;8.18;71.19;101822.06;4956668;28;45294;-74
2023/02/01 02:48:55;;;;;;;;;5.25;5.25;;;;;8.20;71.35;101816.81;4955297;28;45842;-73
2023/02/01 03:05:22;;;;;;;;;5.00;4.25;;;;;8.11;70.27;101833.50;4955709;28;45265;-73
2023/02/01 03:07:56;;;;;;;;;4.75;4.75;;;;;8.14;70.57;101843.97;4955591;28;45541;-73
2023/02/01 03:10:41;;;;;;;;;3.25;3.25;;;;;8.13;70.34;101850.09;4955420;28;45485;-73
2023/02/01 03:13:30;;;;;;;;;3.00;2.25;;;;;8.13;70.60;101844.84;4955768;28;45348;-73
2023/02/01 03:16:06;;;;;;;;;7.00;5.75;;;;;8.12;70.69;101845.72;4955082;28;45472;-73
2023/02/01 03:18:50;;;;;;;;;4.25;4.25;;;;;8.12;70.75;101843.09;4956511;28;45451;-73
2023/02/01 03:21:24;;;;;;;;;3.75;3.75;;;;;8.13;70.78;101859.69;4956947;28;45904;-72
2023/02/01 03:23:53;;;;;;;;;2.75;2.75;;;;;8.07;70.29;101844.03;4958486;28;45375;-73
2023/02/01 03:26:21;;;;;;;;;4.00;4.00;;;;;8.07;70.33;101846.63;4960143;28;45445;-73
2023/02/01 03:28:57;;;;;;;;;0.25;0.25;;;;;8.01;70.16;101843.19;4958519;28;45514;-73
2023/02/01 03:31:23;;;;;;;;;1.00;1.00;;;;;8.06;70.20;101845.78;4956904;28;46127;-73
2023/02/01 03:33:50;;;;;;;;;3.00;3.00;;;;;8.08;69.94;101848.38;4956651;28;45200;-73
2023/02/01 03:36:27;;;;;;;;;4.00;4.00;;;;;8.09;69.69;101853.63;4956540;28;45231;-74
2023/02/01 03:39:28;;;;;;;;;7.00;6.75;;;;;8.09;69.54;101844.88;4955964;28;45300;-73
2023/02/01 03:41:58;;;;;;;;;3.50;3.50;;;;;8.09;69.71;101850.13;4985622;28;45461;-73
2023/02/01 03:44:35;;;;;;;;;2.00;2.00;;;;;8.08;69.37;101853.63;4954699;28;45434;-73
2023/02/01 03:47:15;;;;;;;;;1.25;1.25;;;;;8.08;69.61;101854.50;4957979;28;45252;-72
2023/02/01 03:49:49;;;;;;;;;5.00;5.00;;;;;8.06;69.08;101844.91;4972496;28;45910;-72
2023/02/01 03:52:25;;;;;;;;;3.75;3.75;;;;;8.09;69.72;101845.75;4973280;28;48281;-73
2023/02/01 03:54:52;;;;;;;;;5.00;5.00;;;;;8.07;69.73;101841.41;4974967;28;45426;-73
2023/02/01 03:57:24;;;;;;;;;5.00;4.00;;;;;8.13;69.24;101849.19;4975587;28;45450;-72
2023/02/01 03:59:49;;;;;;;;;2.75;2.50;;;;;8.13;69.62;101839.59;4975513;28;45501;-73
2023/02/01 04:02:15;;;;;;;;;4.75;3.50;;;;;8.13;68.87;101844.84;4974620;28;46624;-73
2023/02/01 04:04:40;;;;;;;;;3.75;3.75;;;;;8.14;69.09;101848.31;4975271;28;45355;-73
2023/02/01 04:07:05;;;;;;;;;8.00;4.25;;;;;8.14;68.95;101851.81;4973590;28;45399;-72
2023/02/01 04:09:31;;;;;;;;;3.00;3.00;;;;;8.11;68.49;101835.25;4977151;28;45441;-72
2023/02/01 04:11:56;;;;;;;;;5.25;5.25;;;;;8.13;68.30;101830.84;4974245;28;48192;-73
2023/02/01 04:14:21;;;;;;;;;4.00;4.00;;;;;8.09;68.06;101831.78;4977773;28;45309;-73
2023/02/01 04:16:47;;;;;;;;;5.00;4.50;;;;;8.02;68.53;101823.97;4977816;28;45350;-74
2023/02/01 04:19:12;;;;;;;;;5.00;5.00;;;;;8.13;67.94;101839.59;4977240;28;45533;-74
2023/02/01 04:21:37;;;;;;;;;3.75;3.75;;;;;8.12;68.15;101842.22;4975697;28;47319;-73
2023/02/01 04:24:03;;;;;;;;;4.75;4.75;;;;;8.07;68.30;101828.28;4978275;28;45322;-73
2023/02/01 04:26:29;;;;;;;;;4.75;4.75;;;;;8.13;68.11;101841.34;4979111;28;45477;-73
2023/02/01 04:28:54;;;;;;;;;5.00;5.00;;;;;8.10;68.21;101830.88;4978171;28;45214;-72
2023/02/01 04:31:25;;;;;;;;;3.50;3.50;;;;;8.14;67.85;101840.44;4977024;28;45253;-73
2023/02/01 04:33:57;;;;;;;;;4.75;4.75;;;;;8.13;68.02;101850.09;4976142;28;45399;-72
2023/02/01 04:36:22;;;;;;;;;3.50;3.50;;;;;8.12;67.20;101850.97;4975003;28;45259;-72
2023/02/01 04:38:52;;;;;;;;;4.00;4.00;;;;;8.09;67.42;101853.63;4974292;28;45277;-74
2023/02/01 04:41:22;;;;;;;;;5.00;5.00;;;;;8.06;67.33;101839.66;4974211;28;45489;-72
2023/02/01 04:43:49;;;;;;;;;7.25;7.25;;;;;8.00;67.87;101846.69;4974539;28;45334;-72
2023/02/01 04:46:14;;;;;;;;;5.25;4.50;;;;;8.02;67.65;101844.94;4974312;28;45225;-73
2023/02/01 04:48:40;;;;;;;;;3.25;3.25;;;;;7.98;67.30;101843.22;4973291;28;45250;-72
2023/02/01 04:51:06;;;;;;;;;3.00;3.00;;;;;7.92;67.67;101845.91;4974517;28;45389;-73
2023/02/01 04:53:31;;;;;;;;;4.50;4.50;;;;;7.88;68.07;101838.94;4974329;28;45406;-73
2023/02/01 04:55:57;;;;;;;;;4.00;4.00;;;;;7.80;68.21;101838.16;4975584;28;45377;-73
2023/02/01 04:58:22;;;;;;;;;3.50;3.50;;;;;7.70;67.94;101842.56;4973928;28;45335;-74
2023/02/01 05:00:48;;;;;;;;;3.25;3.25;;;;;7.63;68.49;101833.03;4973753;28;45344;-74
2023/02/01 05:03:13;;;;;;;;;2.25;2.25;;;;;7.64;68.85;101864.47;4973936;28;45369;-73
2023/02/01 05:05:39;;;;;;;;;4.00;4.00;;;;;7.57;69.28;101862.78;4974138;28;45529;-73
2023/02/01 05:08:04;;;;;;;;;7.00;5.75;;;;;7.51;68.99;101874.13;4973971;28;45523;-73
2023/02/01 05:10:29;;;;;;;;;6.25;4.50;;;;;7.49;69.12;101867.19;4973722;28;45385;-74
2023/02/01 05:15:39;;;;;;;;;4.00;4.00;;;;;7.42;69.46;101867.22;4974329;28;45380;-73
2023/02/01 05:18:04;;;;;;;;;4.75;4.75;;;;;7.10;69.61;101821.16;4974052;28;45529;-73
2023/02/01 05:20:29;;;;;;;;;3.00;3.00;;;;;7.37;69.79;101860.28;4972460;28;47961;-73
2023/02/01 05:22:55;;;;;;;;;4.25;4.00;;;;;7.34;70.15;101862.91;4975487;28;45431;-74
2023/02/01 05:25:20;;;;;;;;;5.50;5.50;;;;;7.29;70.06;101858.56;4977560;28;45295;-74
2023/02/01 05:27:45;;;;;;;;;3.75;3.75;;;;;7.28;70.67;101866.41;4977037;28;45351;-72
2023/02/01 05:30:11;;;;;;;;;6.25;6.25;;;;;7.23;70.43;101869.06;4977277;28;45585;-72
2023/02/01 05:32:36;;;;;;;;;4.00;3.75;;;;;7.24;70.97;101872.56;4976339;28;45283;-72
2023/02/01 05:35:02;;;;;;;;;6.00;5.25;;;;;7.26;70.61;101868.19;4976200;28;45296;-73
2023/02/01 05:37:27;;;;;;;;;3.25;3.00;;;;;7.27;70.45;101867.28;4976132;28;45609;-72
2023/02/01 05:39:53;;;;;;;;;5.75;5.75;;;;;7.32;70.86;101878.59;4976007;28;46170;-72
2023/02/01 05:42:18;;;;;;;;;5.00;4.00;;;;;7.33;70.38;101892.59;4976070;28;45267;-73
2023/02/01 05:44:43;;;;;;;;;5.75;4.75;;;;;7.29;70.56;101876.00;4976121;28;45248;-73
2023/02/01 05:47:09;;;;;;;;;5.00;5.00;;;;;7.33;71.50;101879.50;4976941;28;45250;-73
2023/02/01 05:49:34;;;;;;;;;4.50;4.50;;;;;7.41;71.03;101890.78;4976101;28;45341;-72
2023/02/01 05:52:00;;;;;;;;;5.00;5.00;;;;;7.38;70.46;101881.19;4975595;28;45296;-72
2023/02/01 05:54:25;;;;;;;;;5.75;5.75;;;;;7.45;70.50;101882.91;4976566;28;45286;-72
2023/02/01 05:56:51;;;;;;;;;4.00;4.00;;;;;7.42;70.81;101861.13;4976399;28;45438;-73
2023/02/01 05:59:16;;;;;;;;;5.00;5.00;;;;;7.51;70.56;101875.91;4976304;28;45310;-73
2023/02/01 06:01:42;;;;;;;;;4.50;4.50;;;;;7.54;70.69;101883.75;4975869;28;45200;-74
2023/02/01 06:04:08;;;;;;;;;5.75;5.75;;;;;7.58;70.79;101886.31;4976016;28;45237;-72
2023/02/01 06:06:34;;;;;;;;;3.75;3.25;;;;;7.54;70.49;101875.88;4976179;28;45479;-72
2023/02/01 06:08:59;;;;;;;;;7.00;6.50;;;;;7.39;70.27;101854.13;4975363;28;45886;-73
2023/02/01 06:11:25;;;;;;;;;4.50;4.50;;;;;7.57;70.30;101888.97;4974775;28;45400;-72
2023/02/01 06:13:51;;;;;;;;;5.75;5.75;;;;;7.37;70.83;101844.56;4975289;28;45319;-73
2023/02/01 06:16:16;;;;;;;;;6.00;4.25;;;;;7.58;70.70;101890.69;4975138;28;45615;-73
2023/02/01 06:18:41;;;;;;;;;7.00;7.00;;;;;7.56;70.33;101885.44;4974613;28;46527;-73
2023/02/01 06:21:07;;;;;;;;;5.00;5.00;;;;;7.59;70.58;101903.75;4974537;28;45330;-74
2023/02/01 06:23:33;;;;;;;;;4.50;4.50;;;;;7.51;69.99;101873.28;4974435;28;45390;-73
2023/02/01 06:26:01;;;;;;;;;4.75;4.00;;;;;7.53;69.80;101887.25;4974661;28;45282;-75
2023/02/01 06:28:28;;;;;;;;;4.25;4.25;;;;;7.51;70.05;101878.53;4975344;28;46318;-75
2023/02/01 06:30:53;;;;;;;;;5.00;5.00;;;;;7.48;70.72;101878.53;4984827;28;45301;-74
2023/02/01 06:33:19;;;;;;;;;4.75;4.75;;;;;7.42;70.50;101882.06;4962864;28;45269;-74
2023/02/01 06:35:44;;;;;;;;;5.00;4.50;;;;;7.33;70.46;101874.25;4973344;28;45516;-73
2023/02/01 06:38:11;;;;;;;;;5.00;3.25;;;;;7.43;70.09;101887.28;4973956;28;45771;-75
2023/02/01 06:40:37;;;;;;;;;4.25;3.75;;;;;7.45;70.86;101884.66;4971578;28;45208;-73
2023/02/01 06:43:03;;;;;;;;;5.00;5.00;;;;;7.44;70.11;101882.91;4954999;28;45297;-72
2023/02/01 06:45:28;;;;;;;;;4.25;4.25;;;;;7.42;70.23;101875.09;4964410;28;45470;-72
2023/02/01 06:47:53;;;;;;;;;6.00;6.00;;;;;7.42;70.28;101887.28;4971532;28;45414;-69
2023/02/01 06:50:19;;;;;;;;;5.00;4.75;;;;;7.39;70.29;101884.69;4972905;28;45284;-71
2023/02/01 06:52:44;;;;;;;;;6.50;6.50;;;;;7.34;70.44;101884.69;4973971;28;45417;-70
2023/02/01 06:55:09;;;;;;;;;2.00;2.00;;;;;7.32;70.44;101891.69;4972846;28;58263;-67
2023/02/01 06:57:35;;;;;;;;;4.00;4.00;;;;;7.32;70.37;101899.53;4973672;28;50146;-67
2023/02/01 07:00:02;;;;;;;;;7.00;5.75;;;;;7.27;70.45;101912.69;4973557;28;45531;-68
2023/02/01 07:02:28;;;;;;;;;4.50;4.50;;;;;7.24;70.23;101906.56;4982564;28;45329;-70
2023/02/01 07:04:53;;;;;;;;;5.75;4.25;;;;;7.18;70.38;101897.03;4972456;28;45360;-70
2023/02/01 07:07:19;;;;;;;;;6.25;5.50;;;;;7.20;70.19;101908.34;4973642;28;46298;-72
2023/02/01 07:09:45;;;;;;;;;8.75;8.50;;;;;7.17;71.88;101900.50;4966998;28;45815;-69
2023/02/01 07:12:10;;;;;;;;;4.50;3.75;;;;;7.16;71.47;101907.47;4954537;28;45249;-71
2023/02/01 07:14:36;;;;;;;;;6.25;6.25;;;;;7.18;71.43;101906.59;4968069;28;45612;-74
2023/02/01 07:17:01;;;;;;;;;8.75;5.75;;;;;7.12;70.28;101903.13;4959028;28;45415;-71
2023/02/01 07:19:26;;;;;;;;;7.00;7.00;;;;;7.14;70.71;101917.09;4984082;28;45426;-69
2023/02/01 07:21:51;;;;;;;;;6.75;6.75;;;;;7.12;70.82;101931.06;4973804;28;45318;-73
2023/02/01 07:24:17;;;;;;;;;8.25;8.00;;;;;7.09;69.97;101934.56;4972082;28;45516;-70
2023/02/01 07:26:42;;;;;;;;;6.50;6.50;;;;;6.96;70.92;101911.94;4973735;28;46140;-71
2023/02/01 07:29:07;;;;;;;;;6.00;6.00;;;;;7.05;70.68;101942.44;4972332;28;47776;-73
2023/02/01 07:31:33;;;;;;;;;5.75;5.75;;;;;7.05;71.44;101939.81;4972597;28;45200;-73
2023/02/01 07:33:58;;;;;;;;;7.75;7.75;;;;;7.05;71.49;101934.59;4971525;28;45424;-70
2023/02/01 07:36:24;;;;;;;;;9.00;9.00;;;;;7.04;71.36;101944.16;4954565;28;45994;-71
2023/02/01 07:38:51;;;;;;;;;6.00;6.00;;;;;6.99;70.65;101938.97;4955197;28;45197;-71
2023/02/01 07:41:17;;;;;;;;;7.00;7.00;;;;;7.01;71.22;101954.63;4970491;28;45486;-70
2023/02/01 07:43:43;;;;;;;;;8.00;8.00;;;;;7.01;71.62;101960.75;4979377;28;45614;-71
2023/02/01 07:46:10;;;;;;;;;5.50;5.25;;;;;7.04;71.04;101961.63;4991181;28;45329;-73
2023/02/01 07:48:35;;;;;;;;;4.50;4.50;;;;;7.03;70.98;101963.34;4993023;28;45475;-71
2023/02/01 07:51:04;;;;;;;;;8.00;8.00;;;;;7.06;71.52;101967.72;4993351;28;45298;-70
2023/02/01 07:53:31;;;;;;;;;8.25;7.75;;;;;7.02;71.22;101966.84;4992362;28;45437;-70
2023/02/01 07:55:57;;;;;;;;;8.75;7.00;;;;;7.02;71.08;101961.63;4991641;28;45485;-71
2023/02/01 07:58:23;;;;;;;;;9.50;9.50;;;;;7.18;71.33;101974.66;4994251;27;45263;-70
2023/02/01 08:03:32;;;;;;;;;6.25;6.25;;;;;7.26;70.98;101980.72;4995028;28;45253;-71
2023/02/01 08:05:58;;;;;;;;;12.00;8.00;;;;;7.27;70.92;101979.84;4991515;28;46892;-70
2023/02/01 08:08:23;;;;;;;;;10.25;10.25;;;;;7.26;70.62;101971.13;4992853;28;45328;-71
2023/02/01 08:10:48;;;;;;;;;9.75;9.00;;;;;7.36;71.30;101985.03;4993264;28;45460;-70
2023/02/01 08:13:14;;;;;;;;;7.00;7.00;;;;;7.43;71.28;101984.16;4993160;28;45468;-71
2023/02/01 08:15:39;;;;;;;;;6.00;6.00;;;;;7.42;71.35;101964.09;4992460;28;46270;-70
2023/02/01 08:18:05;;;;;;;;;8.00;8.00;;;;;7.52;70.78;101977.13;4992263;28;54494;-71
2023/02/01 08:20:30;;;;;;;;;13.75;12.75;;;;;7.56;70.35;101961.38;4992495;28;45460;-71
2023/02/01 08:22:56;;;;;;;;;11.50;11.50;;;;;7.58;70.39;101954.41;4992773;28;45511;-69
2023/02/01 08:25:22;;;;;;;;;7.75;7.25;;;;;7.68;70.27;101964.81;4992679;28;45360;-71
2023/02/01 08:27:47;;;;;;;;;11.75;10.50;;;;;7.70;70.00;101963.06;4992542;28;45385;-71
2023/02/01 08:30:13;;;;;;;;;9.50;9.50;;;;;7.70;69.95;101952.59;4991049;28;45297;-71
2023/02/01 08:32:38;;;;;;;;;10.00;10.00;;;;;7.78;69.91;101963.03;4992683;28;45603;-72
2023/02/01 08:35:04;;;;;;;;;9.50;8.25;;;;;7.70;70.12;101942.09;4990502;28;47680;-71
2023/02/01 08:37:30;;;;;;;;;12.00;12.00;;;;;7.82;70.08;101947.25;4992337;28;45251;-70
2023/02/01 08:39:55;;;;;;;;;11.25;10.75;;;;;7.84;70.12;101949.88;4992993;28;45269;-70
2023/02/01 08:45:07;;;;;;;;;11.25;9.75;;;;;7.92;69.95;101945.47;4992138;28;45817;-72
2023/02/01 08:47:33;;;;;;;;;8.00;7.00;;;;;7.95;69.59;101919.25;4991912;28;45476;-71
2023/02/01 08:49:59;;;;;;;;;8.00;8.00;;;;;7.96;69.63;101923.59;4993127;28;45443;-70
2023/02/01 08:52:24;;;;;;;;;11.25;6.75;;;;;8.01;69.16;101926.19;4993410;28;45352;-70
2023/02/01 08:54:49;;;;;;;;;6.50;6.25;;;;;8.01;69.08;101932.28;4994428;28;46019;-70
2023/02/01 08:57:15;;;;;;;;;6.25;6.25;;;;;8.00;69.18;101917.44;4994422;28;45289;-71
2023/02/01 08:59:41;;;;;;;;;9.75;9.75;;;;;8.06;69.20;101924.41;4995138;28;45296;-70
2023/02/01 09:02:11;;;;;;;;;8.00;8.00;;;;;8.10;68.88;101925.22;4995198;28;45519;-71
2023/02/01 09:04:37;;;;;;;;;6.50;6.25;;;;;8.14;68.69;101919.09;4994687;28;45374;-70
2023/02/01 09:07:02;;;;;;;;;5.25;5.25;;;;;8.17;68.15;101924.28;4994936;28;45325;-70
2023/02/01 09:09:28;;;;;;;;;5.25;5.25;;;;;8.11;67.93;101909.50;4995261;28;45240;-69
2023/02/01 09:11:53;;;;;;;;;5.00;5.00;;;;;8.23;68.13;101937.34;4995870;28;45687;-69
2023/02/01 09:14:18;;;;;;;;;4.75;4.75;;;;;8.27;67.94;101933.81;4994730;28;60719;-70
2023/02/01 09:16:44;;;;;;;;;4.00;4.00;;;;;8.26;67.62;101937.31;4995122;28;45391;-69
2023/02/01 09:19:09;;;;;;;;;8.00;7.50;;;;;8.35;67.92;101939.00;4995067;28;45377;-70
2023/02/01 09:21:35;;;;;;;;;8.50;8.50;;;;;8.34;67.29;101934.66;4995134;28;45294;-71
2023/02/01 09:24:00;;;;;;;;;6.00;6.00;;;;;8.46;67.54;101952.00;5009760;28;48142;-70
2023/02/01 09:26:26;;;;;;;;;8.00;8.00;;;;;8.48;67.33;101964.22;4994944;28;45319;-69
2023/02/01 09:28:51;;;;;;;;;4.25;4.25;;;;;8.51;66.88;101970.38;4993817;28;45217;-69
2023/02/01 09:31:17;;;;;;;;;7.50;7.50;;;;;8.52;66.48;101974.72;4994983;28;45610;-70
2023/02/01 09:33:43;;;;;;;;;7.50;7.50;;;;;8.56;66.63;101982.56;4994528;28;46446;-69
2023/02/01 09:36:08;;;;;;;;;9.50;8.00;;;;;8.60;66.52;101992.16;4994734;28;45456;-70
2023/02/01 09:38:34;;;;;;;;;6.25;6.25;;;;;8.64;66.00;101999.97;4995306;28;45224;-69
2023/02/01 09:41:00;;;;;;;;;5.75;5.75;;;;;8.64;66.06;102007.84;4995120;28;45563;-70
2023/02/01 09:43:48;;;;;;;;;8.00;8.00;;;;;8.64;65.81;102002.59;4993408;28;47301;-69
2023/02/01 09:46:24;;;;;;;;;5.25;5.00;;;;;8.66;65.71;102004.31;4994741;28;45404;-69
2023/02/01 09:48:53;;;;;;;;;6.00;6.00;;;;;8.55;65.59;101993.06;5009699;28;45436;-70
2023/02/01 09:51:24;;;;;;;;;6.75;6.75;;;;;8.59;65.72;102005.25;5010038;28;45264;-71
2023/02/01 09:54:03;;;;;;;;;5.00;5.00;;;;;8.56;65.12;101994.78;4994227;28;46144;-71
2023/02/01 09:56:42;;;;;;;;;7.25;7.25;;;;;8.63;65.56;101999.09;4994484;28;45368;-70
2023/02/01 09:59:40;;;;;;;;;6.50;6.50;;;;;8.66;65.13;102006.94;4994432;28;45291;-70
2023/02/01 10:02:14;;;;;;;;;2.00;2.00;;;;;8.62;65.12;102006.13;4996014;28;45378;-71
2023/02/01 10:04:40;;;;;;;;;5.25;4.75;;;;;8.63;65.41;102004.34;4995313;28;45491;-71
2023/02/01 10:07:19;;;;;;;;;6.00;6.00;;;;;8.69;64.94;102016.56;4997363;28;45821;-70
2023/02/01 10:09:58;;;;;;;;;8.50;8.50;;;;;8.67;65.33;102018.31;4994598;28;45349;-72
2023/02/01 10:12:23;;;;;;;;;14.50;14.50;;;;;8.67;65.39;101999.97;4999339;28;45314;-70
2023/02/01 10:15:14;;;;;;;;;6.75;6.75;;;;;8.71;65.05;101999.03;4995548;28;45260;-69
2023/02/01 10:18:17;;;;;;;;;7.25;7.00;;;;;8.78;64.98;102003.34;4994883;27;45361;-69
2023/02/01 10:21:38;;;;;;;;;7.75;7.25;;;;;8.80;64.59;102006.81;4996091;28;45369;-71
2023/02/01 10:24:31;;;;;;;;;7.00;5.50;;;;;8.84;64.54;102005.91;4915766;28;45416;-70
2023/02/01 10:27:06;;;;;;;;;8.50;8.50;;;;;8.87;64.39;102005.00;4995075;28;45373;-71
2023/02/01 10:29:37;;;;;;;;;5.25;5.25;;;;;8.90;64.02;102010.19;4994952;28;45406;-71
2023/02/01 10:32:11;;;;;;;;;20.75;18.75;;;;;8.95;64.12;102004.91;4995090;28;45320;-71
2023/02/01 10:34:37;;;;;;;;;11.50;11.50;;;;;8.99;64.13;102009.25;4995859;28;45485;-71
2023/02/01 10:37:26;;;;;;;;;12.00;10.25;;;;;9.08;64.49;102010.94;4994625;28;46161;-69
2023/02/01 10:39:57;;;;;;;;;7.25;6.75;;;;;9.13;63.37;102006.50;4995064;28;45408;-71
2023/02/01 10:42:28;;;;;;;;;5.25;5.25;;;;;9.12;63.62;102007.38;4993320;28;45259;-70
2023/02/01 10:44:59;;;;;;;;;6.50;6.50;;;;;9.10;63.39;101993.41;4992890;28;45302;-70
2023/02/01 10:47:28;;;;;;;;;10.50;8.00;;;;;9.10;63.38;101993.41;4993044;28;47953;-72
2023/02/01 10:50:16;;;;;;;;;8.25;8.25;;;;;9.10;63.29;101991.63;4993956;28;45429;-71
2023/02/01 10:52:52;;;;;;;;;5.00;5.00;;;;;9.10;63.37;101982.91;4994109;28;45273;-71
2023/02/01 10:55:37;;;;;;;;;6.00;6.00;;;;;9.16;63.38;101993.31;4992654;28;45475;-71
2023/02/01 10:58:27;;;;;;;;;7.50;7.50;;;;;9.17;63.01;101982.78;4993879;28;46088;-71
2023/02/01 11:00:57;;;;;;;;;8.00;7.50;;;;;9.19;63.25;101986.28;4994274;28;45384;-70
2023/02/01 11:03:52;;;;;;;;;12.75;9.00;;;;;9.23;63.08;101967.84;4995182;28;45260;-70
2023/02/01 11:06:37;;;;;;;;;5.00;4.75;;;;;9.27;62.97;101975.69;4979518;28;45161;-70
2023/02/01 11:09:05;;;;;;;;;8.50;8.25;;;;;9.30;63.46;101975.66;4995465;28;46714;-71
2023/02/01 11:11:31;;;;;;;;;8.25;7.25;;;;;9.38;63.21;101977.31;4995161;28;45528;-70
2023/02/01 11:13:59;;;;;;;;;7.00;6.75;;;;;9.42;63.15;101958.84;4994029;28;45459;-71
2023/02/01 11:16:34;;;;;;;;;7.50;7.00;;;;;9.48;62.73;101969.28;4992375;28;45602;-72
2023/02/01 11:18:59;;;;;;;;;5.00;5.00;;;;;9.42;62.52;101953.59;4994433;28;46161;-71
2023/02/01 11:21:24;;;;;;;;;7.50;7.50;;;;;9.60;62.83;101968.25;4952610;28;45472;-70
2023/02/01 11:23:50;;;;;;;;;6.25;6.25;;;;;9.64;62.62;101963.84;4952879;28;45976;-72
2023/02/01 11:26:26;;;;;;;;;10.25;9.75;;;;;9.78;63.12;101968.88;4955273;28;45460;-71
2023/02/01 11:29:03;;;;;;;;;6.00;5.00;;;;;9.84;62.61;101960.91;4955108;28;45439;-71
2023/02/01 11:31:29;;;;;;;;;9.75;9.25;;;;;9.87;62.84;101960.84;4955451;28;45297;-73
2023/02/01 11:34:04;;;;;;;;;11.75;11.75;;;;;9.89;62.60;101958.22;4955012;28;45439;-71
2023/02/01 11:36:32;;;;;;;;;8.50;8.00;;;;;9.91;62.25;101974.84;4956798;28;45317;-73
2023/02/01 11:39:25;;;;;;;;;7.50;7.25;;;;;9.87;62.15;101971.38;4956456;28;46409;-70
2023/02/01 11:42:07;;;;;;;;;9.25;7.50;;;;;9.76;62.39;101952.25;4955298;28;45225;-70
2023/02/01 11:44:41;;;;;;;;;9.75;9.75;;;;;9.77;62.67;101957.50;4955297;28;45423;-70
2023/02/01 11:47:28;;;;;;;;;8.75;7.00;;;;;9.77;62.69;101962.78;4956445;28;45330;-73
2023/02/01 11:50:01;;;;;;;;;7.50;7.00;;;;;9.74;62.43;101964.56;4955700;28;46198;-70
2023/02/01 11:52:42;;;;;;;;;7.50;7.50;;;;;9.71;63.21;101969.84;4954393;28;45178;-71
2023/02/01 11:55:27;;;;;;;;;7.50;7.50;;;;;9.69;62.98;101966.38;4952866;28;45347;-72
2023/02/01 11:58:11;;;;;;;;;6.00;6.00;;;;;9.60;63.43;101946.38;4937080;28;45546;-70
2023/02/01 12:00:48;;;;;;;;;8.50;8.50;;;;;9.64;62.98;101953.31;4954120;28;46004;-71
2023/02/01 12:03:38;;;;;;;;;5.50;5.00;;;;;9.63;63.41;101943.72;4953869;28;45505;-71
2023/02/01 12:06:37;;;;;;;;;7.75;7.75;;;;;9.67;63.52;101936.63;4954763;28;45265;-70
2023/02/01 12:09:29;;;;;;;;;7.50;7.50;;;;;9.76;63.13;101926.88;4954227;28;45315;-70
2023/02/01 12:12:45;;;;;;;;;7.25;7.25;;;;;9.83;62.74;101921.53;4953617;28;45519;-69
2023/02/01 12:15:11;;;;;;;;;8.00;7.50;;;;;9.90;62.28;101923.16;4968948;28;45824;-70
2023/02/01 12:17:48;;;;;;;;;11.75;11.75;;;;;9.97;62.64;101916.03;4953817;28;45433;-70